createdAt,value
2023-01-17T00:02:13.883Z,97668.75
2023-01-17T00:05:00.669Z,97663.84
2023-01-17T00:07:47.563Z,97659.50
2023-01-17T00:10:18.974Z,97658.91
2023-01-17T00:12:49.194Z,97655.22
2023-01-17T00:15:19.715Z,97655.63
2023-01-17T00:17:48.672Z,97651.09
2023-01-17T00:20:38.237Z,97648.47
2023-01-17T00:23:27.020Z,97643.13
2023-01-17T00:26:04.334Z,97648.03
2023-01-17T00:28:34.773Z,97640.03
2023-01-17T00:31:02.293Z,97637.34
2023-01-17T00:33:29.273Z,97645.16
2023-01-17T00:35:59.479Z,97632.47
2023-01-17T00:38:29.186Z,97627.13
2023-01-17T00:41:01.614Z,97621.56
2023-01-17T00:43:49.202Z,97620.38
2023-01-17T00:46:35.088Z,97621.56
2023-01-17T00:49:20.869Z,97611.53
2023-01-17T00:52:07.978Z,97624.88
2023-01-17T00:54:53.307Z,97626.06
2023-01-17T00:57:38.547Z,97629.56
2023-01-17T01:00:26.015Z,97618.28
2023-01-17T01:03:11.239Z,97619.50
2023-01-17T01:05:57.001Z,97624.44
2023-01-17T01:08:46.714Z,97622.97
2023-01-17T01:11:35.162Z,97623.19
2023-01-17T01:14:20.881Z,97619.28
2023-01-17T01:17:06.211Z,97613.94
2023-01-17T01:19:51.911Z,97618.28
2023-01-17T01:22:37.847Z,97615.19
2023-01-17T01:25:25.534Z,97602.03
2023-01-17T01:28:10.788Z,97612.91
2023-01-17T01:30:56.226Z,97611.91
2023-01-17T01:33:23.002Z,97611.28
2023-01-17T01:35:53.677Z,97609.44
2023-01-17T01:38:24.333Z,97596.94
2023-01-17T01:40:57.293Z,97594.06
2023-01-17T01:43:43.539Z,97598.78
2023-01-17T01:46:16.215Z,97593.69
2023-01-17T01:48:51.943Z,97590.81
2023-01-17T01:51:24.921Z,97590.81
2023-01-17T01:53:59.743Z,97589.59
2023-01-17T01:56:32.688Z,97580.56
2023-01-17T01:59:05.385Z,97588.78
2023-01-17T02:01:33.732Z,97589.59
2023-01-17T02:04:03.180Z,97585.28
2023-01-17T02:06:37.148Z,97577.09
2023-01-17T02:09:10.021Z,97574.84
2023-01-17T02:11:41.958Z,97578.91
2023-01-17T02:14:10.017Z,97580.56
2023-01-17T02:16:56.897Z,97578.91
2023-01-17T02:20:01.280Z,97570.91
2023-01-17T02:23:15.123Z,97568.25
2023-01-17T02:26:15.502Z,97563.75
2023-01-17T02:29:19.144Z,97569.44
2023-01-17T02:31:56.370Z,97564.09
2023-01-17T02:34:37.120Z,97569.00
2023-01-17T02:37:15.607Z,97569.00
2023-01-17T02:39:54.194Z,97571.03
2023-01-17T02:42:32.619Z,97567.38
2023-01-17T02:45:03.578Z,97569.81
2023-01-17T02:47:33.519Z,97571.03
2023-01-17T02:50:09.856Z,97575.53
2023-01-17T02:52:59.339Z,97573.28
2023-01-17T02:55:48.689Z,97575.97
2023-01-17T02:58:33.572Z,97577.22
2023-01-17T03:01:20.246Z,97571.53
2023-01-17T03:03:58.837Z,97584.66
2023-01-17T03:06:36.354Z,97582.00
2023-01-17T03:09:06.520Z,97585.06
2023-01-17T03:11:34.445Z,97581.59
2023-01-17T03:14:02.432Z,97576.09
2023-01-17T03:16:34.153Z,97575.47
2023-01-17T03:19:03.578Z,97574.84
2023-01-17T03:21:31.577Z,97579.16
2023-01-17T03:23:59.454Z,97574.44
2023-01-17T03:26:27.371Z,97578.94
2023-01-17T03:28:55.333Z,97579.16
2023-01-17T03:31:23.210Z,97568.69
2023-01-17T03:33:51.376Z,97561.13
2023-01-17T03:36:20.612Z,97573.00
2023-01-17T03:38:48.578Z,97574.63
2023-01-17T03:41:16.555Z,97572.19
2023-01-17T03:43:44.496Z,97574.22
2023-01-17T03:46:24.207Z,97583.47
2023-01-17T03:48:53.408Z,97576.88
2023-01-17T03:51:22.745Z,97579.97
2023-01-17T03:53:51.926Z,97589.63
2023-01-17T03:56:19.971Z,97586.53
2023-01-17T03:58:47.948Z,97585.50
2023-01-17T04:01:16.035Z,97583.44
2023-01-17T04:03:44.039Z,97583.03
2023-01-17T04:06:12.037Z,97585.50
2023-01-17T04:08:41.655Z,97592.69
2023-01-17T04:11:09.420Z,97585.91
2023-01-17T04:13:37.380Z,97595.97
2023-01-17T04:16:06.298Z,97590.63
2023-01-17T04:18:34.224Z,97592.69
2023-01-17T04:21:02.095Z,97592.47
2023-01-17T04:23:30.237Z,97602.72
2023-01-17T04:25:59.492Z,97598.63
2023-01-17T04:28:27.423Z,97599.84
2023-01-17T04:30:59.861Z,97601.50
2023-01-17T04:33:27.939Z,97595.13
2023-01-17T04:35:56.194Z,97611.72
2023-01-17T04:38:24.421Z,97604.34
2023-01-17T04:40:52.637Z,97605.59
2023-01-17T04:43:21.917Z,97604.16
2023-01-17T04:45:57.989Z,97619.13
2023-01-17T04:48:27.142Z,97610.91
2023-01-17T04:51:00.761Z,97605.19
2023-01-17T04:53:29.090Z,97609.28
2023-01-17T04:55:57.261Z,97624.44
2023-01-17T04:58:26.618Z,97622.59
2023-01-17T05:00:54.887Z,97610.91
2023-01-17T05:03:24.272Z,97619.53
2023-01-17T05:05:52.327Z,97633.06
2023-01-17T05:08:20.481Z,97629.78
2023-01-17T05:10:48.812Z,97633.06
2023-01-17T05:13:18.431Z,97637.75
2023-01-17T05:15:47.938Z,97643.09
2023-01-17T05:18:17.755Z,97637.16
2023-01-17T05:20:46.247Z,97633.47
2023-01-17T05:23:14.163Z,97643.09
2023-01-17T05:25:44.175Z,97645.19
2023-01-17T05:28:13.056Z,97656.84
2023-01-17T05:30:41.275Z,97654.19
2023-01-17T05:33:11.232Z,97663.41
2023-01-17T05:35:39.637Z,97675.69
2023-01-17T05:38:07.581Z,97678.56
2023-01-17T05:40:36.250Z,97674.50
2023-01-17T05:43:04.825Z,97683.50
2023-01-17T05:45:34.637Z,97682.69
2023-01-17T05:48:03.757Z,97682.28
2023-01-17T05:50:36.361Z,97685.56
2023-01-17T05:53:07.456Z,97696.66
2023-01-17T05:55:36.430Z,97695.41
2023-01-17T05:58:05.244Z,97691.94
2023-01-17T06:00:34.042Z,97704.44
2023-01-17T06:03:03.281Z,97714.47
2023-01-17T06:05:32.971Z,97710.97
2023-01-17T06:08:00.798Z,97716.31
2023-01-17T06:10:29.404Z,97722.47
2023-01-17T06:13:06.824Z,97730.69
2023-01-17T06:15:37.537Z,97734.97
2023-01-17T06:18:07.167Z,97742.97
2023-01-17T06:20:36.954Z,97745.44
2023-01-17T06:23:07.572Z,97740.50
2023-01-17T06:25:38.831Z,97740.94
2023-01-17T06:28:07.730Z,97733.56
2023-01-17T06:30:35.802Z,97740.72
2023-01-17T06:33:04.219Z,97743.59
2023-01-17T06:35:32.530Z,97736.81
2023-01-17T06:38:01.922Z,97747.47
2023-01-17T06:40:31.392Z,97744.22
2023-01-17T06:43:01.597Z,97743.78
2023-01-17T06:45:30.721Z,97748.28
2023-01-17T06:47:59.746Z,97759.56
2023-01-17T06:50:28.244Z,97758.13
2023-01-17T06:52:57.905Z,97759.78
2023-01-17T06:55:28.766Z,97762.66
2023-01-17T06:57:57.094Z,97761.41
2023-01-17T07:00:25.520Z,97776.34
2023-01-17T07:02:53.988Z,97781.88
2023-01-17T07:05:22.141Z,97788.03
2023-01-17T07:07:50.036Z,97793.78
2023-01-17T07:10:18.236Z,97790.72
2023-01-17T07:12:47.852Z,97800.38
2023-01-17T07:15:15.745Z,97795.84
2023-01-17T07:17:43.748Z,97803.22
2023-01-17T07:20:13.490Z,97800.75
2023-01-17T07:22:45.282Z,97805.09
2023-01-17T07:25:13.597Z,97797.28
2023-01-17T07:27:41.560Z,97803.66
2023-01-17T07:30:13.392Z,97801.19
2023-01-17T07:32:41.393Z,97809.78
2023-01-17T07:35:10.273Z,97809.78
2023-01-17T07:37:39.050Z,97810.41
2023-01-17T07:40:08.523Z,97812.69
2023-01-17T07:42:36.497Z,97802.00
2023-01-17T07:45:04.892Z,97816.78
2023-01-17T07:47:34.452Z,97811.63
2023-01-17T07:50:02.828Z,97816.59
2023-01-17T07:52:30.851Z,97821.72
2023-01-17T07:54:59.051Z,97826.22
2023-01-17T07:57:27.075Z,97825.19
2023-01-17T07:59:55.025Z,97833.41
2023-01-17T08:02:25.040Z,97837.09
2023-01-17T08:04:54.295Z,97839.16
2023-01-17T08:07:22.330Z,97838.31
2023-01-17T08:09:50.596Z,97838.75
2023-01-17T08:12:18.874Z,97838.75
2023-01-17T08:14:46.849Z,97838.94
2023-01-17T08:17:17.837Z,97847.78
2023-01-17T08:19:45.835Z,97839.38
2023-01-17T08:22:15.115Z,97844.69
2023-01-17T08:24:43.137Z,97853.94
2023-01-17T08:27:11.211Z,97844.69
2023-01-17T08:29:41.990Z,97848.84
2023-01-17T08:32:10.046Z,97855.59
2023-01-17T08:34:38.054Z,97855.56
2023-01-17T08:37:06.018Z,97856.63
2023-01-17T08:39:35.353Z,97866.44
2023-01-17T08:42:03.299Z,97872.59
2023-01-17T08:44:31.259Z,97877.09
2023-01-17T08:46:59.308Z,97878.34
2023-01-17T08:49:29.358Z,97871.34
2023-01-17T08:51:57.983Z,97878.72
2023-01-17T08:54:25.934Z,97879.97
2023-01-17T08:56:55.676Z,97879.97
2023-01-17T08:59:23.744Z,97888.59
2023-01-17T09:01:52.538Z,97890.25
2023-01-17T09:04:20.709Z,97899.50
2023-01-17T09:06:48.822Z,97898.50
2023-01-17T09:09:17.600Z,97907.50
2023-01-17T09:11:45.607Z,97905.25
2023-01-17T09:14:15.541Z,97907.72
2023-01-17T09:16:43.589Z,97912.00
2023-01-17T09:19:11.567Z,97911.47
2023-01-17T09:21:39.547Z,97917.41
2023-01-17T09:24:08.143Z,97926.59
2023-01-17T09:26:36.491Z,97928.03
2023-01-17T09:29:04.627Z,97938.50
2023-01-17T09:31:34.002Z,97946.50
2023-01-17T09:34:02.824Z,97963.88
2023-01-17T09:36:33.852Z,97968.84
2023-01-17T09:39:03.470Z,97964.22
2023-01-17T09:41:33.685Z,97966.84
2023-01-17T09:44:14.292Z,97972.44
2023-01-17T09:46:49.298Z,97981.94
2023-01-17T09:49:35.666Z,97970.97
2023-01-17T09:52:05.747Z,97987.84
2023-01-17T09:54:41.495Z,97985.44
2023-01-17T09:57:27.367Z,97992.59
2023-01-17T10:00:07.722Z,97993.41
2023-01-17T10:03:00.741Z,97997.75
2023-01-17T10:05:56.575Z,98003.53
2023-01-17T10:08:47.034Z,98011.31
2023-01-17T10:11:39.715Z,98018.97
2023-01-17T10:14:47.298Z,98021.03
2023-01-17T10:17:31.029Z,98020.38
2023-01-17T10:20:20.169Z,98022.31
2023-01-17T10:23:17.002Z,98024.34
2023-01-17T10:25:49.883Z,98036.56
2023-01-17T10:28:27.631Z,98040.19
2023-01-17T10:31:04.469Z,98062.06
2023-01-17T10:33:41.483Z,98043.47
2023-01-17T10:36:20.560Z,98050.22
2023-01-17T10:38:53.122Z,98062.47
2023-01-17T10:41:29.436Z,98065.81
2023-01-17T10:44:11.391Z,98064.28
2023-01-17T10:46:46.372Z,98058.19
2023-01-17T10:49:20.906Z,98070.91
2023-01-17T10:52:20.195Z,98070.91
2023-01-17T10:55:18.344Z,98076.81
2023-01-17T10:57:49.461Z,98092.69
2023-01-17T11:00:43.930Z,98087.59
2023-01-17T11:03:14.442Z,98090.06
2023-01-17T11:05:44.511Z,98088.28
2023-01-17T11:08:15.685Z,98094.09
2023-01-17T11:10:47.046Z,98089.91
2023-01-17T11:13:29.834Z,98102.03
2023-01-17T11:16:02.243Z,98101.75
2023-01-17T11:18:34.142Z,98102.88
2023-01-17T11:21:15.223Z,98106.22
2023-01-17T11:23:47.983Z,98110.59
2023-01-17T11:26:28.352Z,98118.25
2023-01-17T11:29:17.216Z,98122.91
2023-01-17T11:31:45.178Z,98128.63
2023-01-17T11:34:19.435Z,98140.25
2023-01-17T11:36:47.419Z,98138.69
2023-01-17T11:39:29.982Z,98150.06
2023-01-17T11:41:58.232Z,98145.06
2023-01-17T11:44:29.232Z,98139.84
2023-01-17T11:47:19.976Z,98131.19
2023-01-17T11:49:50.499Z,98138.16
2023-01-17T11:52:25.196Z,98141.56
2023-01-17T11:54:56.513Z,98144.88
2023-01-17T11:57:28.722Z,98148.28
2023-01-17T12:00:19.316Z,98144.78
2023-01-17T12:03:16.069Z,98147.16
2023-01-17T12:05:59.853Z,98145.50
2023-01-17T12:08:56.400Z,98146.94
2023-01-17T12:11:39.546Z,98156.47
2023-01-17T12:14:22.622Z,98148.91
2023-01-17T12:17:11.519Z,98154.88
2023-01-17T12:20:04.756Z,98152.19
2023-01-17T12:23:13.759Z,98159.97
2023-01-17T12:26:10.247Z,98159.28
2023-01-17T12:29:20.135Z,98164.88
2023-01-17T12:32:08.169Z,98162.13
2023-01-17T12:34:47.039Z,98174.63
2023-01-17T12:37:25.342Z,98171.75
2023-01-17T12:40:02.820Z,98184.88
2023-01-17T12:42:40.644Z,98181.88
2023-01-17T12:45:21.451Z,98183.41
2023-01-17T12:47:58.974Z,98191.63
2023-01-17T12:50:36.936Z,98195.41
2023-01-17T12:53:19.590Z,98203.59
2023-01-17T12:55:57.512Z,98200.59
2023-01-17T12:58:29.535Z,98202.81
2023-01-17T13:01:15.531Z,98202.56
2023-01-17T13:04:00.241Z,98208.97
2023-01-17T13:06:37.050Z,98210.72
2023-01-17T13:09:06.850Z,98215.91
2023-01-17T13:11:46.470Z,98214.81
2023-01-17T13:14:14.240Z,98211.94
2023-01-17T13:16:56.946Z,98222.22
2023-01-17T13:19:46.529Z,98224.94
2023-01-17T13:22:17.492Z,98228.38
2023-01-17T13:24:56.949Z,98234.56
2023-01-17T13:28:08.306Z,98230.00
2023-01-17T13:30:56.850Z,98236.41
2023-01-17T13:33:42.015Z,98236.97
2023-01-17T13:36:34.982Z,98241.31
2023-01-17T13:39:27.120Z,98238.59
2023-01-17T13:42:12.835Z,98252.63
2023-01-17T13:44:40.812Z,98263.63
2023-01-17T13:47:41.529Z,98263.63
2023-01-17T13:50:50.646Z,98268.22
2023-01-17T13:53:58.951Z,98274.66
2023-01-17T13:56:37.171Z,98278.97
2023-01-17T13:59:38.331Z,98279.06
2023-01-17T14:02:39.294Z,98279.78
2023-01-17T14:05:12.370Z,98287.03
2023-01-17T14:07:49.585Z,98287.09
2023-01-17T14:10:30.754Z,98291.88
2023-01-17T14:12:59.276Z,98289.31
2023-01-17T14:15:29.253Z,98290.78
2023-01-17T14:18:04.047Z,98295.47
2023-01-17T14:21:11.569Z,98307.25
2023-01-17T14:24:04.753Z,98316.81
2023-01-17T14:26:42.353Z,98319.38
2023-01-17T14:29:58.430Z,98330.94
2023-01-17T14:32:32.028Z,98327.66
2023-01-17T14:35:01.976Z,98327.38
2023-01-17T14:37:46.660Z,98339.81
2023-01-17T14:40:20.177Z,98352.09
2023-01-17T14:42:58.743Z,98350.25
2023-01-17T14:45:30.640Z,98353.19
2023-01-17T14:48:00.729Z,98358.13
2023-01-17T14:50:36.721Z,98358.88
2023-01-17T14:53:17.499Z,98353.66
2023-01-17T14:56:01.823Z,98359.25
2023-01-17T14:58:32.423Z,98361.44
2023-01-17T15:01:03.969Z,98369.81
2023-01-17T15:03:42.903Z,98358.50
2023-01-17T15:06:19.805Z,98366.97
2023-01-17T15:08:49.959Z,98371.19
2023-01-17T15:11:25.130Z,98374.50
2023-01-17T15:13:59.084Z,98372.22
2023-01-17T15:16:30.119Z,98386.78
2023-01-17T15:18:59.586Z,98375.84
2023-01-17T15:21:35.419Z,98381.81
2023-01-17T15:24:08.389Z,98391.44
2023-01-17T15:26:42.064Z,98394.38
2023-01-17T15:29:20.953Z,98399.78
2023-01-17T15:31:52.212Z,98402.94
2023-01-17T15:34:28.772Z,98399.13
2023-01-17T15:37:01.387Z,98397.41
2023-01-17T15:39:32.815Z,98397.41
2023-01-17T15:42:05.725Z,98397.28
2023-01-17T15:44:53.389Z,98403.84
2023-01-17T15:47:33.889Z,98406.44
2023-01-17T15:50:25.726Z,98405.94
2023-01-17T15:52:57.937Z,98401.06
2023-01-17T15:55:32.272Z,98413.94
2023-01-17T15:58:00.921Z,98413.44
2023-01-17T16:00:37.562Z,98414.53
2023-01-17T16:03:23.853Z,98426.78
2023-01-17T16:05:54.230Z,98420.44
2023-01-17T16:08:39.352Z,98412.66
2023-01-17T16:11:11.551Z,98416.22
2023-01-17T16:13:42.210Z,98417.34
2023-01-17T16:16:18.113Z,98419.16
2023-01-17T16:18:48.072Z,98417.19
2023-01-17T16:21:26.041Z,98438.47
2023-01-17T16:23:56.380Z,98437.66
2023-01-17T16:26:25.127Z,98436.81
2023-01-17T16:28:53.418Z,98429.84
2023-01-17T16:31:21.645Z,98430.06
2023-01-17T16:33:51.715Z,98433.16
2023-01-17T16:36:21.345Z,98424.84
2023-01-17T16:38:52.026Z,98427.50
2023-01-17T16:41:22.095Z,98428.66
2023-01-17T16:44:01.096Z,98440.13
2023-01-17T16:46:29.984Z,98438.28
2023-01-17T16:49:01.193Z,98438.94
2023-01-17T16:51:29.207Z,98438.09
2023-01-17T16:53:58.109Z,98444.75
2023-01-17T16:56:27.518Z,98441.84
2023-01-17T16:58:56.205Z,98439.75
2023-01-17T17:01:25.244Z,98439.09
2023-01-17T17:03:53.386Z,98440.78
2023-01-17T17:06:21.352Z,98449.44
2023-01-17T17:08:49.239Z,98450.44
2023-01-17T17:11:20.187Z,98456.09
2023-01-17T17:13:51.608Z,98447.16
2023-01-17T17:16:23.189Z,98449.50
2023-01-17T17:18:57.771Z,98453.47
2023-01-17T17:21:26.413Z,98447.66
2023-01-17T17:23:58.100Z,98448.69
2023-01-17T17:26:28.955Z,98458.13
2023-01-17T17:28:59.079Z,98463.75
2023-01-17T17:31:27.629Z,98465.75
2023-01-17T17:33:59.631Z,98471.41
2023-01-17T17:36:27.749Z,98470.56
2023-01-17T17:38:57.552Z,98470.28
2023-01-17T17:41:29.093Z,98476.69
2023-01-17T17:43:59.269Z,98475.88
2023-01-17T17:46:29.118Z,98476.72
2023-01-17T17:48:58.670Z,98483.03
2023-01-17T17:51:28.165Z,98490.34
2023-01-17T17:54:00.800Z,98499.66
2023-01-17T17:56:30.811Z,98494.34
2023-01-17T17:59:02.273Z,98498.00
2023-01-17T18:01:31.106Z,98511.25
2023-01-17T18:04:03.627Z,98499.31
2023-01-17T18:06:31.778Z,98505.31
2023-01-17T18:08:59.671Z,98509.94
2023-01-17T18:11:29.629Z,98512.28
2023-01-17T18:14:05.601Z,98498.66
2023-01-17T18:16:36.604Z,98503.13
2023-01-17T18:19:06.542Z,98502.28
2023-01-17T18:21:37.918Z,98506.28
2023-01-17T18:24:09.348Z,98506.25
2023-01-17T18:26:39.923Z,98495.00
2023-01-17T18:29:14.680Z,98503.78
2023-01-17T18:31:47.532Z,98497.47
2023-01-17T18:34:17.884Z,98501.13
2023-01-17T18:36:46.253Z,98502.81
2023-01-17T18:39:17.015Z,98503.47
2023-01-17T18:41:45.745Z,98503.13
2023-01-17T18:44:15.156Z,98507.56
2023-01-17T18:46:43.212Z,98512.53
2023-01-17T18:49:12.885Z,98508.53
2023-01-17T18:51:41.133Z,98507.56
2023-01-17T18:54:09.631Z,98520.47
2023-01-17T18:56:37.544Z,98520.78
2023-01-17T18:59:07.297Z,98526.91
2023-01-17T19:01:37.409Z,98531.41
2023-01-17T19:04:06.860Z,98533.06
2023-01-17T19:06:36.900Z,98538.75
2023-01-17T19:09:06.331Z,98533.81
2023-01-17T19:11:36.188Z,98534.16
2023-01-17T19:14:04.629Z,98530.13
2023-01-17T19:16:41.325Z,98530.91
2023-01-17T19:19:13.756Z,98530.81
2023-01-17T19:21:41.731Z,98544.88
2023-01-17T19:24:13.116Z,98540.75
2023-01-17T19:26:41.525Z,98543.63
2023-01-17T19:29:10.145Z,98541.13
2023-01-17T19:31:42.972Z,98541.13
2023-01-17T19:34:13.839Z,98542.25
2023-01-17T19:36:41.990Z,98549.53
2023-01-17T19:39:11.017Z,98546.59
2023-01-17T19:41:43.691Z,98549.19
2023-01-17T19:44:13.820Z,98548.66
2023-01-17T19:46:43.966Z,98556.16
2023-01-17T19:49:11.954Z,98555.47
2023-01-17T19:51:40.744Z,98554.69
2023-01-17T19:54:12.185Z,98556.41
2023-01-17T19:56:45.475Z,98550.75
2023-01-17T19:59:21.251Z,98568.53
2023-01-17T20:01:58.589Z,98561.16
2023-01-17T20:04:40.875Z,98558.84
2023-01-17T20:07:14.271Z,98563.31
2023-01-17T20:09:49.714Z,98564.50
2023-01-17T20:12:23.666Z,98566.09
2023-01-17T20:14:58.897Z,98564.69
2023-01-17T20:17:34.591Z,98565.97
2023-01-17T20:20:08.149Z,98570.25
2023-01-17T20:22:43.759Z,98571.34
2023-01-17T20:25:16.331Z,98569.38
2023-01-17T20:27:48.897Z,98567.97
2023-01-17T20:30:20.391Z,98568.63
2023-01-17T20:32:51.120Z,98566.56
2023-01-17T20:35:19.103Z,98574.31
2023-01-17T20:37:52.198Z,98566.84
2023-01-17T20:40:20.407Z,98562.66
2023-01-17T20:42:48.363Z,98570.94
2023-01-17T20:45:16.443Z,98576.59
2023-01-17T20:47:44.578Z,98580.31
2023-01-17T20:50:13.974Z,98583.63
2023-01-17T20:52:41.927Z,98583.13
2023-01-17T20:55:10.568Z,98592.09
2023-01-17T20:57:38.525Z,98591.28
2023-01-17T21:00:08.657Z,98591.47
2023-01-17T21:02:36.716Z,98597.41
2023-01-17T21:05:05.493Z,98602.16
2023-01-17T21:07:42.326Z,98606.44
2023-01-17T21:10:11.849Z,98618.72
2023-01-17T21:12:39.617Z,98622.41
2023-01-17T21:15:10.364Z,98631.81
2023-01-17T21:17:42.151Z,98634.59
2023-01-17T21:20:13.819Z,98647.69
2023-01-17T21:22:43.409Z,98651.31
2023-01-17T21:25:11.349Z,98657.72
2023-01-17T21:27:39.268Z,98660.22
2023-01-17T21:30:09.819Z,98662.19
2023-01-17T21:32:37.699Z,98668.84
2023-01-17T21:35:07.712Z,98672.63
2023-01-17T21:37:36.439Z,98679.38
2023-01-17T21:40:06.992Z,98680.06
2023-01-17T21:42:34.946Z,98674.06
2023-01-17T21:45:02.908Z,98682.16
2023-01-17T21:47:31.068Z,98682.97
2023-01-17T21:49:59.027Z,98686.78
2023-01-17T21:52:27.067Z,98693.41
2023-01-17T21:55:12.780Z,98685.63
2023-01-17T21:57:59.641Z,98695.44
2023-01-17T22:00:27.686Z,98703.91
2023-01-17T22:02:58.078Z,98705.88
2023-01-17T22:05:26.891Z,98712.59
2023-01-17T22:08:14.341Z,98701.56
2023-01-17T22:10:45.789Z,98703.91
2023-01-17T22:13:17.571Z,98706.69
2023-01-17T22:15:47.054Z,98705.56
2023-01-17T22:18:15.918Z,98702.47
2023-01-17T22:20:44.004Z,98707.47
2023-01-17T22:23:12.516Z,98697.41
2023-01-17T22:25:40.888Z,98704.59
2023-01-17T22:28:09.297Z,98708.38
2023-01-17T22:30:38.601Z,98714.78
2023-01-17T22:33:06.533Z,98711.31
2023-01-17T22:35:34.537Z,98706.47
2023-01-17T22:38:02.527Z,98713.66
2023-01-17T22:40:32.549Z,98711.72
2023-01-17T22:43:00.532Z,98712.97
2023-01-17T22:45:28.975Z,98714.25
2023-01-17T22:47:58.269Z,98707.16
2023-01-17T22:50:26.157Z,98710.91
2023-01-17T22:52:54.157Z,98697.06
2023-01-17T22:55:22.259Z,98691.78
2023-01-17T22:57:50.323Z,98688.44
2023-01-17T23:00:19.009Z,98691.28
2023-01-17T23:02:47.071Z,98689.72
2023-01-17T23:05:16.521Z,98696.28
2023-01-17T23:07:44.356Z,98697.22
2023-01-17T23:10:34.875Z,98698.84
2023-01-17T23:13:02.909Z,98697.38
2023-01-17T23:15:48.570Z,98700.16
2023-01-17T23:18:33.950Z,98690.00
2023-01-17T23:21:03.405Z,98681.09
2023-01-17T23:23:32.951Z,98682.06
2023-01-17T23:26:01.400Z,98680.69
2023-01-17T23:28:28.331Z,98678.22
2023-01-17T23:31:03.615Z,98680.56
2023-01-17T23:33:31.621Z,98672.03
2023-01-17T23:35:59.717Z,98666.72
2023-01-17T23:38:33.923Z,98669.59
2023-01-17T23:41:22.301Z,98672.34
2023-01-17T23:43:54.858Z,98669.84
2023-01-17T23:46:23.908Z,98673.03
2023-01-17T23:48:52.290Z,98654.22
2023-01-17T23:51:20.331Z,98654.06
2023-01-17T23:53:52.091Z,98652.78
2023-01-17T23:56:24.619Z,98650.06
2023-01-17T23:58:52.529Z,98648.00
